createdAt,value
2023-02-05T00:00:00.900Z,25.77
2023-02-05T00:05:02.444Z,27.50
2023-02-05T00:10:04.607Z,28.13
2023-02-05T00:15:06.516Z,29.50
2023-02-05T00:20:08.818Z,31.17
2023-02-05T00:25:10.387Z,32.88
2023-02-05T00:30:12.536Z,30.27
2023-02-05T00:35:14.170Z,30.95
2023-02-05T00:40:15.699Z,30.08
2023-02-05T00:45:17.368Z,29.90
2023-02-05T00:50:18.922Z,27.88
2023-02-05T00:55:20.557Z,28.33
2023-02-05T01:00:22.475Z,27.65
2023-02-05T01:05:23.980Z,25.13
2023-02-05T01:10:25.657Z,25.23
2023-02-05T01:15:27.332Z,23.58
2023-02-05T01:20:29.087Z,20.48
2023-02-05T01:25:30.890Z,18.00
2023-02-05T01:30:32.936Z,16.67
2023-02-05T01:35:34.867Z,15.00
2023-02-05T01:40:36.888Z,15.63
2023-02-05T01:45:41.175Z,15.15
2023-02-05T01:50:47.893Z,15.30
2023-02-05T01:55:59.988Z,15.23
2023-02-05T02:01:01.538Z,15.25
2023-02-05T02:06:04.831Z,14.15
2023-02-05T02:11:09.270Z,14.38
2023-02-05T02:16:11.964Z,15.00
2023-02-05T02:21:32.246Z,15.57
2023-02-05T02:26:52.464Z,14.80
2023-02-05T02:32:04.842Z,14.73
2023-02-05T02:37:14.765Z,14.30
2023-02-05T02:42:26.315Z,12.60
2023-02-05T02:47:37.753Z,11.82
2023-02-05T02:52:42.446Z,11.23
2023-02-05T02:57:46.325Z,11.23
2023-02-05T03:02:50.421Z,10.90
2023-02-05T03:07:56.391Z,10.32
2023-02-05T03:12:57.948Z,9.43
2023-02-05T03:17:59.567Z,7.95
2023-02-05T03:23:01.151Z,7.88
2023-02-05T03:28:03.025Z,7.57
2023-02-05T03:33:16.700Z,7.13
2023-02-05T03:38:56.745Z,7.15
2023-02-05T03:44:10.255Z,6.45
2023-02-05T03:49:17.682Z,8.20
2023-02-05T03:54:46.380Z,6.80
2023-02-05T03:59:49.904Z,6.80
2023-02-05T04:04:51.445Z,6.68
2023-02-05T04:09:52.968Z,6.15
2023-02-05T04:14:54.452Z,4.53
2023-02-05T04:19:55.927Z,4.20
2023-02-05T04:24:57.457Z,3.40
2023-02-05T04:29:59.035Z,3.70
2023-02-05T04:35:00.548Z,4.15
2023-02-05T04:40:02.058Z,2.90
2023-02-05T04:45:05.861Z,2.80
2023-02-05T04:50:07.447Z,2.63
2023-02-05T04:55:09.004Z,3.55
2023-02-05T05:00:11.443Z,2.80
2023-02-05T05:05:13.049Z,3.35
2023-02-05T05:10:14.569Z,2.88
2023-02-05T05:15:16.347Z,2.60
2023-02-05T05:20:18.052Z,2.00
2023-02-05T05:25:19.596Z,2.08
2023-02-05T05:30:21.174Z,2.53
2023-02-05T05:35:22.702Z,3.08
2023-02-05T05:40:42.866Z,2.15
2023-02-05T05:45:44.439Z,2.58
2023-02-05T05:50:46.590Z,3.13
2023-02-05T05:55:48.489Z,2.20
2023-02-05T06:00:50.479Z,2.53
2023-02-05T06:05:51.999Z,3.00
2023-02-05T06:10:53.549Z,2.65
2023-02-05T06:15:55.285Z,3.00
2023-02-05T06:20:56.894Z,2.92
2023-02-05T06:25:58.597Z,3.50
2023-02-05T06:31:00.241Z,3.70
2023-02-05T06:36:01.831Z,3.30
2023-02-05T06:41:03.403Z,3.22
2023-02-05T06:46:04.935Z,3.28
2023-02-05T06:51:06.558Z,3.33
2023-02-05T06:56:08.060Z,3.72
2023-02-05T07:01:09.684Z,3.15
2023-02-05T07:06:11.271Z,3.42
2023-02-05T07:11:12.812Z,4.50
2023-02-05T07:16:14.320Z,4.80
2023-02-05T07:21:17.157Z,3.50
2023-02-05T07:26:18.713Z,5.07
2023-02-05T07:31:20.379Z,5.47
2023-02-05T07:36:22.034Z,4.32
2023-02-05T07:41:23.807Z,5.97
2023-02-05T07:46:25.402Z,5.65
2023-02-05T07:51:27.208Z,6.15
2023-02-05T07:56:28.788Z,6.68
2023-02-05T08:01:30.358Z,6.88
2023-02-05T08:06:33.547Z,6.32
2023-02-05T08:11:35.132Z,6.60
2023-02-05T08:16:36.688Z,5.70
2023-02-05T08:21:38.260Z,7.00
2023-02-05T08:26:40.310Z,5.75
2023-02-05T08:31:41.883Z,6.28
2023-02-05T08:36:43.431Z,6.60
2023-02-05T08:41:44.987Z,5.70
2023-02-05T08:46:50.264Z,5.88
2023-02-05T08:51:52.087Z,6.65
2023-02-05T08:56:53.627Z,7.13
2023-02-05T09:01:55.121Z,6.43
2023-02-05T09:06:56.695Z,7.28
2023-02-05T09:11:58.779Z,7.18
2023-02-05T09:17:00.286Z,6.28
2023-02-05T09:22:02.021Z,7.18
2023-02-05T09:27:06.351Z,7.75
2023-02-05T09:32:08.482Z,5.38
2023-02-05T09:37:10.036Z,6.72
2023-02-05T09:42:44.664Z,6.78
2023-02-05T09:47:59.912Z,6.60
2023-02-05T09:53:13.185Z,7.35
2023-02-05T09:58:23.423Z,6.00
2023-02-05T10:03:32.253Z,6.25
2023-02-05T10:08:58.428Z,6.07
2023-02-05T10:14:11.550Z,6.35
2023-02-05T10:19:18.709Z,6.93
2023-02-05T10:24:38.544Z,6.60
2023-02-05T10:29:53.447Z,7.07
2023-02-05T10:35:23.047Z,7.18
2023-02-05T10:40:42.143Z,5.85
2023-02-05T10:45:44.428Z,6.00
2023-02-05T10:50:55.185Z,7.30
2023-02-05T10:55:59.172Z,5.40
2023-02-05T11:01:02.590Z,5.70
2023-02-05T11:06:10.282Z,5.35
2023-02-05T11:16:36.638Z,5.60
2023-02-05T11:22:24.293Z,5.53
2023-02-05T11:27:29.350Z,6.28
2023-02-05T11:32:37.430Z,5.82
2023-02-05T11:37:40.556Z,7.95
2023-02-05T11:42:48.362Z,5.82
2023-02-05T11:47:51.146Z,6.40
2023-02-05T11:52:54.460Z,6.00
2023-02-05T11:58:02.402Z,6.38
2023-02-05T12:03:17.380Z,5.30
2023-02-05T12:08:24.823Z,5.88
2023-02-05T12:13:45.563Z,6.18
2023-02-05T12:19:15.597Z,6.65
2023-02-05T12:24:29.206Z,5.95
2023-02-05T12:29:52.514Z,6.30
2023-02-05T12:35:01.584Z,5.00
2023-02-05T12:40:09.625Z,4.95
2023-02-05T12:45:39.754Z,6.28
2023-02-05T12:51:32.771Z,6.90
2023-02-05T12:56:52.698Z,7.53
2023-02-05T13:02:01.362Z,6.80
2023-02-05T13:07:24.134Z,6.75
2023-02-05T13:12:29.927Z,7.85
2023-02-05T13:17:37.281Z,6.97
2023-02-05T13:23:05.867Z,7.53
2023-02-05T13:28:40.495Z,6.63
2023-02-05T13:33:43.648Z,7.47
2023-02-05T13:39:11.336Z,6.78
2023-02-05T13:44:50.429Z,9.35
2023-02-05T13:50:13.291Z,7.43
2023-02-05T13:55:21.138Z,7.40
2023-02-05T14:00:24.859Z,6.75
2023-02-05T14:05:32.936Z,7.75
2023-02-05T14:10:44.949Z,8.45
2023-02-05T14:15:46.657Z,8.20
2023-02-05T14:20:48.207Z,6.82
2023-02-05T14:26:04.989Z,7.43
2023-02-05T14:31:07.544Z,7.75
2023-02-05T14:36:15.200Z,8.90
2023-02-05T14:41:28.614Z,7.93
2023-02-05T14:46:44.957Z,7.75
2023-02-05T14:52:00.238Z,7.72
2023-02-05T14:57:42.604Z,7.35
2023-02-05T15:03:06.011Z,8.00
2023-02-05T15:08:29.350Z,6.95
2023-02-05T15:13:31.387Z,7.53
2023-02-05T15:18:37.614Z,7.60
2023-02-05T15:23:45.064Z,7.15
2023-02-05T15:28:59.988Z,6.68
2023-02-05T15:34:30.545Z,5.53
2023-02-05T15:40:09.658Z,8.73
2023-02-05T15:45:26.043Z,7.40
2023-02-05T15:50:28.895Z,7.20
2023-02-05T15:55:31.063Z,6.55
2023-02-05T16:00:34.669Z,6.80
2023-02-05T16:05:37.873Z,5.78
2023-02-05T16:10:52.252Z,7.82
2023-02-05T16:16:09.196Z,7.15
2023-02-05T16:21:25.752Z,7.78
2023-02-05T16:26:36.599Z,7.88
2023-02-05T16:31:38.475Z,7.65
2023-02-05T16:36:44.117Z,7.13
2023-02-05T16:41:46.000Z,7.57
2023-02-05T16:47:07.282Z,6.32
2023-02-05T16:52:26.347Z,7.13
2023-02-05T16:57:34.501Z,6.72
2023-02-05T17:02:41.570Z,7.95
2023-02-05T17:07:43.042Z,9.17
2023-02-05T17:13:05.192Z,7.28
2023-02-05T17:18:29.601Z,7.78
2023-02-05T17:23:31.112Z,6.93
2023-02-05T17:28:38.048Z,7.30
2023-02-05T17:33:39.528Z,6.70
2023-02-05T17:38:41.051Z,6.07
2023-02-05T17:43:42.629Z,7.95
2023-02-05T17:48:44.796Z,6.15
2023-02-05T17:53:46.774Z,6.68
2023-02-05T17:58:50.348Z,7.15
2023-02-05T18:03:51.861Z,6.75
2023-02-05T18:08:53.430Z,6.95
2023-02-05T18:13:54.905Z,8.15
2023-02-05T18:19:05.058Z,7.22
2023-02-05T18:24:06.655Z,7.13
2023-02-05T18:29:08.203Z,7.70
2023-02-05T18:34:09.703Z,6.35
2023-02-05T18:39:11.249Z,7.32
2023-02-05T18:44:12.823Z,6.90
2023-02-05T18:49:14.912Z,7.63
2023-02-05T18:54:17.101Z,8.15
2023-02-05T18:59:21.109Z,6.35
2023-02-05T19:04:24.242Z,6.57
2023-02-05T19:09:27.409Z,7.85
2023-02-05T19:14:28.982Z,6.80
2023-02-05T19:19:31.189Z,5.95
2023-02-05T19:24:33.171Z,7.13
2023-02-05T19:29:39.643Z,9.98
2023-02-05T19:34:43.310Z,5.90
2023-02-05T19:39:44.897Z,6.43
2023-02-05T19:44:46.456Z,5.57
2023-02-05T19:49:47.961Z,6.28
2023-02-05T19:54:49.438Z,5.78
2023-02-05T19:59:50.910Z,6.65
2023-02-05T20:04:52.530Z,8.13
2023-02-05T20:09:54.046Z,9.23
2023-02-05T20:14:55.646Z,8.32
2023-02-05T20:20:10.153Z,7.03
2023-02-05T20:25:14.058Z,5.70
2023-02-05T20:30:34.795Z,6.78
2023-02-05T20:35:36.556Z,6.95
2023-02-05T20:40:38.309Z,9.10
2023-02-05T20:45:39.810Z,10.32
2023-02-05T20:50:41.292Z,9.13
2023-02-05T20:55:42.794Z,9.95
2023-02-05T21:00:44.339Z,8.40
2023-02-05T21:05:45.885Z,7.63
2023-02-05T21:10:47.379Z,10.23
2023-02-05T21:15:58.110Z,11.30
2023-02-05T21:21:21.169Z,8.20
2023-02-05T21:26:34.568Z,8.55
2023-02-05T21:31:39.357Z,7.95
2023-02-05T21:36:41.263Z,7.45
2023-02-05T21:41:45.507Z,6.03
2023-02-05T21:46:47.240Z,8.10
2023-02-05T21:51:50.305Z,6.75
2023-02-05T21:56:51.852Z,8.55
2023-02-05T22:01:53.384Z,5.05
2023-02-05T22:06:54.945Z,5.50
2023-02-05T22:12:02.599Z,6.78
2023-02-05T22:22:05.613Z,4.57
2023-02-05T22:27:07.119Z,5.50
2023-02-05T22:32:08.649Z,4.75
2023-02-05T22:37:10.172Z,4.93
2023-02-05T22:42:11.707Z,5.47
2023-02-05T22:47:13.209Z,5.15
2023-02-05T22:52:14.679Z,5.97
2023-02-05T22:57:16.147Z,7.70
2023-02-05T23:02:17.633Z,6.10
2023-02-05T23:07:19.144Z,5.85
2023-02-05T23:12:21.022Z,6.22
2023-02-05T23:17:22.942Z,5.00
2023-02-05T23:22:24.807Z,5.38
2023-02-05T23:27:27.889Z,4.55
2023-02-05T23:32:29.867Z,5.88
2023-02-05T23:37:31.916Z,4.32
2023-02-05T23:42:33.391Z,4.75
2023-02-05T23:47:34.932Z,4.63
2023-02-05T23:52:36.461Z,5.03
2023-02-05T23:57:37.974Z,4.50
